Time;durP1;ratioP1;P1;durP2;ratioP2;P2;SDS_P1;SDS_P2;PMS_P1;PMS_P2;Temp;Humidity;BMP_temperature;BMP_pressure;BME280_temperature;BME280_humidity;BME280_pressure;Samples;Min_cycle;Max_cycle;Signal;HPM_P1;HPM_P2
2022/03/05 00:01:20;;;;;;;;;;;-0.90;99.90;;;-2.82;100.00;101660.28;2569783;30;137803;-40
2022/03/05 00:03:47;;;;;;;;;;;-0.90;99.90;;;-2.90;100.00;101659.00;2568619;30;138291;-40
2022/03/05 00:06:15;;;;;;;;;;;-1.00;99.90;;;-2.96;100.00;101666.56;2568780;30;137113;-40
2022/03/05 00:08:45;;;;;;;;;;;-1.10;99.90;;;-2.98;100.00;101665.81;2568380;30;138388;-40
2022/03/05 00:11:12;;;;;;;;;;;-1.10;99.90;;;-3.02;100.00;101670.53;2568538;30;137883;-40
2022/03/05 00:13:40;;;;;;;;;;;-1.10;99.90;;;-3.03;100.00;101669.66;2567132;30;138568;-40
2022/03/05 00:16:07;;;;;;;;;;;-1.10;99.90;;;-3.08;100.00;101676.25;2568066;30;137940;-40
2022/03/05 00:18:36;;;;;;;;;;;-1.20;99.90;;;-3.13;100.00;101673.03;2568694;30;138409;-40
2022/03/05 00:21:03;;;;;;;;;;;-1.20;99.90;;;-3.18;100.00;101663.53;2566004;30;137332;-40
2022/03/05 00:23:30;;;;;;;;;;;-1.30;99.90;;;-3.20;100.00;101673.47;2569030;30;138284;-40
2022/03/05 00:25:58;;;;;;;;;;;-1.30;99.90;;;-3.24;100.00;101668.41;2569244;30;137096;-40
2022/03/05 00:28:25;;;;;;;;;;;-1.30;99.90;;;-3.24;100.00;101665.75;2569927;30;138293;-40
2022/03/05 00:30:58;;;;;;;;;;;-1.40;99.90;;;-3.25;100.00;101658.69;2568645;30;137155;-40
2022/03/05 00:33:25;;;;;;;;;;;-1.30;99.90;;;-3.26;100.00;101671.19;2567904;30;138489;-40
2022/03/05 00:35:53;;;;;;;;;;;-1.40;99.90;;;-3.30;100.00;101669.69;2568264;30;137021;-40
2022/03/05 00:38:21;;;;;;;;;;;-1.40;99.90;;;-3.30;100.00;101668.81;2567916;30;139317;-40
2022/03/05 00:40:48;;;;;;;;;;;-1.40;99.90;;;-3.32;100.00;101668.91;2567906;30;137090;-40
2022/03/05 00:43:15;;;;;;;;;;;-1.40;99.90;;;-3.28;100.00;101670.44;2568487;30;139330;-40
2022/03/05 00:45:43;;;;;;;;;;;-1.40;99.90;;;-3.30;100.00;101668.81;2567999;30;137894;-40
2022/03/05 00:48:10;;;;;;;;;;;-1.40;99.90;;;-3.34;100.00;101666.38;2568849;30;138166;-40
2022/03/05 00:50:39;;;;;;;;;;;-1.40;99.90;;;-3.35;100.00;101658.44;2567404;30;137178;-40
2022/03/05 00:53:11;;;;;;;;;;;-1.40;99.90;;;-3.30;100.00;101668.81;2568895;30;138209;-40
2022/03/05 00:55:38;;;;;;;;;;;-1.40;99.90;;;-3.16;100.00;101666.13;2567743;30;137989;-40
2022/03/05 00:58:06;;;;;;;;;;;-1.30;99.90;;;-3.20;100.00;101664.59;2569551;30;138403;-40
2022/03/05 01:00:34;;;;;;;;;;;-1.40;99.90;;;-3.22;100.00;101670.03;2567089;30;137533;-40
2022/03/05 01:03:02;;;;;;;;;;;-1.40;99.90;;;-3.18;100.00;101668.03;2568922;30;137109;-40
2022/03/05 01:05:29;;;;;;;;;;;-1.40;99.90;;;-3.28;100.00;101637.56;2576431;30;137419;-37
2022/03/05 01:07:57;;;;;;;;;;;-1.30;99.90;;;-3.00;100.00;101659.72;2570242;30;136881;-38
2022/03/05 01:10:25;;;;;;;;;;;-1.20;99.90;;;-2.79;100.00;101652.06;2570545;30;137044;-41
2022/03/05 01:12:54;;;;;;;;;;;-1.10;99.90;;;-2.73;100.00;101656.16;2571220;30;139533;-41
2022/03/05 01:15:21;;;;;;;;;;;-1.00;99.90;;;-2.64;100.00;101648.38;2569537;30;137307;-41
2022/03/05 01:17:48;;;;;;;;;;;-0.90;99.90;;;-2.63;100.00;101641.22;2571079;30;138941;-42
2022/03/05 01:20:16;;;;;;;;;;;-0.80;99.90;;;-2.48;99.67;101648.16;2570383;30;137045;-41
2022/03/05 01:22:43;;;;;;;;;;;-0.70;99.90;;;-2.43;98.79;101653.19;2569821;30;138127;-41
2022/03/05 01:25:11;;;;;;;;;;;-0.70;99.90;;;-2.39;98.84;101651.13;2570594;30;137783;-42
2022/03/05 01:27:38;;;;;;;;;;;-0.70;99.90;;;-2.38;98.49;101650.19;2572369;30;138329;-41
2022/03/05 01:30:06;;;;;;;;;;;-0.60;99.90;;;-2.39;98.40;101648.47;2569462;30;137048;-41
2022/03/05 01:32:33;;;;;;;;;;;-0.60;99.90;;;-2.36;98.33;101646.44;2570878;30;139096;-41
2022/03/05 01:35:00;;;;;;;;;;;-0.60;99.90;;;-2.25;97.79;101634.16;2567134;30;136662;-41
2022/03/05 01:37:28;;;;;;;;;;;-0.50;99.90;;;-2.23;98.03;101638.41;2565909;38;138351;-41
2022/03/05 01:39:56;;;;;;;;;;;-0.50;99.90;;;-2.19;97.97;101642.56;2572089;30;137292;-41
2022/03/05 01:42:24;;;;;;;;;;;-0.40;99.90;;;-2.20;97.88;101640.88;2565669;30;138288;-41
2022/03/05 01:44:52;;;;;;;;;;;-0.40;99.90;;;-2.23;98.16;101641.09;2569792;30;136907;-41
2022/03/05 01:47:19;;;;;;;;;;;-0.40;99.90;;;-2.21;97.57;101636.47;2570838;30;138454;-41
2022/03/05 01:49:47;;;;;;;;;;;-0.40;99.90;;;-2.07;97.25;101634.66;2571200;30;137071;-41
2022/03/05 01:52:14;;;;;;;;;;;-0.30;99.90;;;-2.09;97.28;101632.06;2570149;30;138187;-41
2022/03/05 01:54:41;;;;;;;;;;;-0.30;99.90;;;-2.09;97.56;101636.59;2569373;30;137017;-41
2022/03/05 01:57:12;;;;;;;;;;;-0.30;99.90;;;-2.08;98.05;101632.94;2567977;30;138627;-41
2022/03/05 01:59:39;;;;;;;;;;;-0.30;99.90;;;-2.03;98.14;101641.50;2567530;30;137377;-41
2022/03/05 02:02:06;;;;;;;;;;;-0.30;99.90;;;-1.85;97.21;101638.47;2570438;30;139256;-42
2022/03/05 02:04:34;;;;;;;;;;;-0.20;99.90;;;-1.88;97.33;101640.38;2567365;30;137197;-41
2022/03/05 02:07:02;;;;;;;;;;;-0.10;99.90;;;-1.80;96.78;101637.16;2571235;30;137247;-41
2022/03/05 02:09:29;;;;;;;;;;;-0.10;99.90;;;-1.75;96.54;101634.16;2567601;30;136834;-41
2022/03/05 02:11:56;;;;;;;;;;;0.00;99.90;;;-1.75;96.55;101634.97;2565945;30;139149;-41
2022/03/05 02:14:24;;;;;;;;;;;0.00;99.90;;;-1.73;96.87;101632.22;2572122;30;137555;-41
2022/03/05 02:16:52;;;;;;;;;;;0.00;99.90;;;-1.76;96.22;101632.44;2566730;30;138773;-41
2022/03/05 02:19:19;;;;;;;;;;;0.00;99.90;;;-1.67;96.14;101626.41;2569724;30;137035;-41
2022/03/05 02:21:47;;;;;;;;;;;0.10;99.90;;;-1.71;96.59;101616.06;2567498;30;138901;-41
2022/03/05 02:24:31;;;;;;;;;;;0.10;99.90;;;-1.62;95.59;101621.56;2569664;30;137158;-41
2022/03/05 02:27:03;;;;;;;;;;;0.10;99.90;;;-1.58;95.58;101613.34;2569385;30;137417;-41
2022/03/05 02:29:31;;;;;;;;;;;0.20;99.90;;;-1.63;95.10;101619.00;2568860;30;136873;-41
2022/03/05 02:31:59;;;;;;;;;;;0.20;99.90;;;-1.73;95.31;101621.50;2568541;30;139140;-41
2022/03/05 02:34:26;;;;;;;;;;;0.10;99.90;;;-1.80;95.76;101622.94;2573286;30;137305;-41
2022/03/05 02:36:54;;;;;;;;;;;0.00;99.90;;;-1.77;95.96;101620.03;2569533;30;138226;-41
2022/03/05 02:39:25;;;;;;;;;;;0.00;99.90;;;-1.86;95.61;101623.34;2569779;30;137560;-41
2022/03/05 02:41:54;;;;;;;;;;;-0.10;99.90;;;-1.93;95.34;101621.13;2569875;30;138049;-41
2022/03/05 02:44:22;;;;;;;;;;;-0.10;99.90;;;-1.93;95.93;101621.13;2571558;30;137183;-42
2022/03/05 02:46:50;;;;;;;;;;;-0.20;99.90;;;-1.99;95.98;101616.22;2570260;30;138989;-41
2022/03/05 02:49:18;;;;;;;;;;;-0.20;99.90;;;-2.02;96.32;101621.81;2569932;30;137054;-41
2022/03/05 02:51:45;;;;;;;;;;;-0.20;99.90;;;-2.09;96.54;101621.38;2569365;30;138121;-41
2022/03/05 02:54:13;;;;;;;;;;;-0.30;99.90;;;-2.04;96.55;101610.38;2568669;30;136984;-43
2022/03/05 02:56:40;;;;;;;;;;;-0.20;99.90;;;-1.93;96.17;101607.75;2568983;30;137139;-41
2022/03/05 02:59:07;;;;;;;;;;;-0.20;99.90;;;-2.03;96.56;101604.88;2568633;30;137204;-42
2022/03/05 03:01:35;;;;;;;;;;;-0.20;99.90;;;-2.04;96.67;101610.38;2566911;30;138098;-42
2022/03/05 03:04:02;;;;;;;;;;;-0.20;99.90;;;-2.08;96.20;101604.38;2570672;30;137144;-41
2022/03/05 03:06:31;;;;;;;;;;;-0.30;99.90;;;-2.05;96.41;101612.16;2569103;30;138024;-41
2022/03/05 03:08:59;;;;;;;;;;;-0.30;99.90;;;-2.06;96.57;101606.94;2568332;30;136902;-41
2022/03/05 03:11:26;;;;;;;;;;;-0.30;99.90;;;-2.00;96.71;101609.16;2570710;30;139303;-41
2022/03/05 03:13:54;;;;;;;;;;;-0.20;99.90;;;-1.91;96.45;101605.81;2569714;30;137088;-41
2022/03/05 03:16:21;;;;;;;;;;;-0.20;99.90;;;-1.98;96.70;101609.91;2569587;30;138316;-41
2022/03/05 03:18:49;;;;;;;;;;;-0.20;99.90;;;-1.95;96.92;101607.00;2567530;30;136755;-42
2022/03/05 03:21:16;;;;;;;;;;;-0.20;99.90;;;-2.07;96.56;101583.84;2570276;30;138318;-42
2022/03/05 03:23:44;;;;;;;;;;;-0.20;99.90;;;-2.02;96.53;101611.94;2571201;30;137772;-41
2022/03/05 03:26:11;;;;;;;;;;;-0.20;99.90;;;-1.89;96.00;101611.06;2566501;30;138567;-41
2022/03/05 03:28:38;;;;;;;;;;;-0.20;99.90;;;-1.90;95.94;101612.03;2569578;30;137239;-43
2022/03/05 03:31:06;;;;;;;;;;;-0.20;99.90;;;-2.02;95.97;101605.75;2568946;30;139357;-41
2022/03/05 03:33:33;;;;;;;;;;;-0.20;99.90;;;-2.06;96.50;101606.94;2569205;30;136852;-41
2022/03/05 03:36:00;;;;;;;;;;;-0.30;99.90;;;-2.12;96.51;101610.03;2571544;30;138165;-41
2022/03/05 03:38:27;;;;;;;;;;;-0.30;99.90;;;-2.15;96.60;101618.28;2567492;30;137633;-41
2022/03/05 03:40:55;;;;;;;;;;;-0.40;99.90;;;-2.14;96.47;101607.50;2570987;30;139273;-42
2022/03/05 03:43:22;;;;;;;;;;;-0.30;99.90;;;-2.11;96.74;101617.97;2569585;30;137393;-41
2022/03/05 03:45:50;;;;;;;;;;;-0.40;99.90;;;-2.09;96.71;101618.72;2570211;30;139331;-41
2022/03/05 03:48:17;;;;;;;;;;;-0.30;99.90;;;-2.03;96.25;101614.75;2573782;30;137619;-42
2022/03/05 03:50:46;;;;;;;;;;;-0.30;99.90;;;-2.06;97.14;101617.66;2570218;30;138284;-41
2022/03/05 03:53:13;;;;;;;;;;;-0.30;99.90;;;-2.11;97.34;101619.81;2570836;30;137134;-41
2022/03/05 03:55:40;;;;;;;;;;;-0.30;99.90;;;-2.15;96.49;101615.59;2570101;30;138349;-41
2022/03/05 03:58:08;;;;;;;;;;;-0.40;99.90;;;-2.21;96.94;101608.91;2569629;30;137793;-43
2022/03/05 04:00:35;;;;;;;;;;;-0.40;99.90;;;-2.18;96.90;101612.19;2572555;30;137076;-41
2022/03/05 04:03:03;;;;;;;;;;;-0.40;99.90;;;-2.17;97.30;101611.22;2566189;30;138083;-41
2022/03/05 04:05:31;;;;;;;;;;;-0.40;99.90;;;-2.16;96.89;101609.44;2571444;30;138768;-42
2022/03/05 04:10:44;;;;;;;;;;;-0.40;99.90;;;-2.16;97.46;101617.44;2573021;30;137357;-41
2022/03/05 04:13:12;;;;;;;;;;;-0.40;99.90;;;-2.13;97.31;101609.19;2568489;30;136769;-41
2022/03/05 04:15:39;;;;;;;;;;;-0.40;99.90;;;-2.17;97.07;101615.75;2570689;30;138204;-41
2022/03/05 04:18:06;;;;;;;;;;;-0.40;99.90;;;-2.21;97.17;101615.09;2568170;30;137410;-41
2022/03/05 04:20:34;;;;;;;;;;;-0.40;99.90;;;-2.17;97.17;101618.41;2568752;30;138915;-41
2022/03/05 04:23:02;;;;;;;;;;;-0.40;99.90;;;-2.16;96.80;101620.13;2570019;30;137075;-41
2022/03/05 04:25:29;;;;;;;;;;;-0.40;99.90;;;-2.20;96.93;101622.16;2569269;30;138269;-40
2022/03/05 04:27:57;;;;;;;;;;;-0.40;99.90;;;-2.29;97.06;101622.81;2570575;30;137196;-41
2022/03/05 04:30:24;;;;;;;;;;;-0.40;99.90;;;-2.26;97.51;101624.41;2569774;30;138230;-41
2022/03/05 04:32:52;;;;;;;;;;;-0.50;99.90;;;-2.32;97.17;101631.06;2571152;30;137570;-42
2022/03/05 04:35:19;;;;;;;;;;;-0.50;99.90;;;-2.33;97.53;101634.69;2569997;30;138451;-41
2022/03/05 04:37:47;;;;;;;;;;;-0.50;99.90;;;-2.37;97.33;101630.53;2567967;30;137983;-41
2022/03/05 04:40:15;;;;;;;;;;;-0.50;99.90;;;-2.34;97.71;101625.78;2570593;30;137329;-43
2022/03/05 04:42:43;;;;;;;;;;;-0.50;99.90;;;-2.27;97.77;101628.91;2570487;30;136573;-41
2022/03/05 04:45:11;;;;;;;;;;;-0.50;99.90;;;-2.26;97.39;101629.75;2568804;30;138170;-41
2022/03/05 04:47:39;;;;;;;;;;;-0.50;99.90;;;-2.22;97.15;101632.09;2570031;30;136853;-44
2022/03/05 04:50:08;;;;;;;;;;;-0.40;99.90;;;-2.20;96.82;101629.31;2570944;30;139242;-41
2022/03/05 04:52:36;;;;;;;;;;;-0.40;99.90;;;-2.13;96.78;101625.25;2566464;30;137822;-41
2022/03/05 04:55:05;;;;;;;;;;;-0.40;99.90;;;-2.12;96.58;101634.09;2570209;30;136668;-41
2022/03/05 04:57:33;;;;;;;;;;;-0.40;99.90;;;-2.16;96.90;101630.81;2569144;30;137797;-41
2022/03/05 05:00:01;;;;;;;;;;;-0.40;99.90;;;-2.16;96.57;101636.16;2570806;30;136774;-41
2022/03/05 05:02:28;;;;;;;;;;;-0.40;99.90;;;-2.20;96.29;101635.50;2569897;30;138236;-41
2022/03/05 05:04:56;;;;;;;;;;;-0.40;99.90;;;-2.15;96.18;101635.19;2567720;30;139537;-41
2022/03/05 05:07:24;;;;;;;;;;;-0.40;99.90;;;-2.17;96.15;101640.63;2569506;30;137565;-41
2022/03/05 05:09:51;;;;;;;;;;;-0.40;99.90;;;-2.21;96.27;101641.81;2571239;30;138296;-41
2022/03/05 05:12:19;;;;;;;;;;;-0.40;99.90;;;-2.24;96.40;101650.06;2571089;30;137201;-41
2022/03/05 05:14:47;;;;;;;;;;;-0.40;99.90;;;-2.28;96.62;101645.91;2570549;30;138292;-41
2022/03/05 05:17:14;;;;;;;;;;;-0.50;99.90;;;-2.32;96.81;101644.41;2569763;30;137131;-41
2022/03/05 05:19:41;;;;;;;;;;;-0.50;99.90;;;-2.27;97.01;101644.06;2567965;30;138068;-41
2022/03/05 05:22:09;;;;;;;;;;;-0.50;99.90;;;-2.32;97.02;101655.09;2570665;30;137201;-41
2022/03/05 05:24:36;;;;;;;;;;;-0.50;99.90;;;-2.26;96.99;101657.34;2569080;30;138204;-43
2022/03/05 05:27:05;;;;;;;;;;;-0.50;99.90;;;-2.12;96.49;101647.47;2568767;30;137435;-41
2022/03/05 05:29:33;;;;;;;;;;;-0.40;99.90;;;-2.21;96.05;101654.34;2567905;30;138820;-41
2022/03/05 05:32:10;;;;;;;;;;;-0.40;99.90;;;-2.26;95.59;101660.03;2570434;30;136709;-41
2022/03/05 05:34:39;;;;;;;;;;;-0.50;99.90;;;-2.21;96.03;101667.72;2570853;30;138244;-41
2022/03/05 05:37:13;;;;;;;;;;;-0.40;99.90;;;-2.28;95.94;101659.28;2569550;30;137199;-43
2022/03/05 05:39:41;;;;;;;;;;;-0.50;99.90;;;-2.29;96.16;101665.59;2568085;30;137301;-41
2022/03/05 05:42:09;;;;;;;;;;;-0.50;99.90;;;-2.37;96.58;101659.94;2570732;30;136986;-43
2022/03/05 05:44:37;;;;;;;;;;;-0.60;99.90;;;-2.36;96.92;101658.97;2568802;30;138507;-41
2022/03/05 05:47:05;;;;;;;;;;;-0.60;99.90;;;-2.38;96.43;101668.91;2571035;30;136766;-44
2022/03/05 05:49:33;;;;;;;;;;;-0.60;99.90;;;-2.30;96.56;101661.19;2568038;30;138177;-41
2022/03/05 05:52:01;;;;;;;;;;;-0.60;99.90;;;-2.29;96.56;101665.59;2570707;30;138096;-41
2022/03/05 05:54:29;;;;;;;;;;;-0.60;99.90;;;-2.24;96.40;101671.47;2570235;30;138193;-41
2022/03/05 05:56:56;;;;;;;;;;;-0.50;99.90;;;-2.22;96.46;101669.53;2568322;30;136993;-41
2022/03/05 05:59:24;;;;;;;;;;;-0.50;99.90;;;-2.31;95.71;101668.34;2570328;30;138536;-41
2022/03/05 06:01:51;;;;;;;;;;;-0.50;99.90;;;-2.30;96.53;101666.56;2566662;30;137158;-41
2022/03/05 06:04:19;;;;;;;;;;;-0.50;99.90;;;-2.23;96.59;101665.16;2569614;30;138349;-41
2022/03/05 06:06:47;;;;;;;;;;;-0.50;99.90;;;-2.08;96.03;101659.69;2569918;30;137499;-41
2022/03/05 06:09:14;;;;;;;;;;;-0.40;99.90;;;-2.08;95.96;101670.38;2569739;30;138950;-42
2022/03/05 06:11:42;;;;;;;;;;;-0.40;99.90;;;-2.11;96.01;101673.28;2569826;30;137168;-41
2022/03/05 06:14:10;;;;;;;;;;;-0.30;99.90;;;-2.13;96.52;101672.50;2568711;30;139393;-41
2022/03/05 06:16:38;;;;;;;;;;;-0.40;99.90;;;-2.19;96.44;101674.66;2569580;30;136773;-41
2022/03/05 06:19:08;;;;;;;;;;;-0.40;99.90;;;-2.19;96.15;101668.47;2568219;30;138494;-41
2022/03/05 06:21:35;;;;;;;;;;;-0.40;99.90;;;-2.17;96.54;101667.38;2567858;30;137288;-41
2022/03/05 06:24:03;;;;;;;;;;;-0.40;99.90;;;-2.07;96.21;101672.09;2570920;30;138286;-42
2022/03/05 06:26:31;;;;;;;;;;;-0.40;99.90;;;-1.98;96.04;101665.25;2569810;30;137091;-41
2022/03/05 06:28:59;;;;;;;;;;;-0.30;99.90;;;-1.94;95.42;101672.09;2569282;30;138932;-43
2022/03/05 06:31:26;;;;;;;;;;;-0.30;99.90;;;-1.95;95.76;101660.50;2568619;30;137472;-41
2022/03/05 06:33:54;;;;;;;;;;;-0.20;99.90;;;-1.87;95.63;101668.00;2569933;30;138310;-41
2022/03/05 06:36:21;;;;;;;;;;;-0.20;99.90;;;-1.92;95.74;101671.00;2571127;30;136964;-41
2022/03/05 06:38:48;;;;;;;;;;;-0.20;99.90;;;-1.83;95.50;101669.47;2570562;30;139179;-41
2022/03/05 06:41:16;;;;;;;;;;;-0.10;99.90;;;-1.76;95.09;101673.41;2568548;30;137461;-42
2022/03/05 06:43:43;;;;;;;;;;;-0.10;99.90;;;-1.80;94.97;101666.56;2569939;30;138301;-41
2022/03/05 06:46:11;;;;;;;;;;;-0.10;99.90;;;-1.64;94.97;101673.50;2569517;30;137922;-41
2022/03/05 06:48:38;;;;;;;;;;;0.00;99.90;;;-1.61;94.50;101673.28;2570195;30;138197;-41
2022/03/05 06:51:06;;;;;;;;;;;0.00;99.90;;;-1.58;94.55;101677.56;2570385;30;136797;-41
2022/03/05 06:53:33;;;;;;;;;;;0.10;99.90;;;-1.58;94.22;101670.38;2570201;30;138177;-41
2022/03/05 06:56:00;;;;;;;;;;;0.10;99.90;;;-1.52;93.95;101677.13;2569147;30;137078;-41
2022/03/05 06:58:28;;;;;;;;;;;0.10;99.90;;;-1.43;93.66;101691.66;2569502;30;138231;-41
2022/03/05 07:00:55;;;;;;;;;;;0.20;99.90;;;-1.35;93.12;101686.56;2567707;30;137037;-41
2022/03/05 07:03:23;;;;;;;;;;;0.30;99.90;;;-1.35;93.05;101678.53;2570084;30;138377;-41
2022/03/05 07:08:16;;;;;;;;;;;0.30;99.90;;;-1.18;92.86;101674.59;2568656;30;137824;-40
2022/03/05 07:10:44;;;;;;;;;;;0.50;99.90;;;-1.13;92.37;101677.78;2564552;38;138236;-40
2022/03/05 07:13:11;;;;;;;;;;;0.50;99.90;;;-1.06;92.08;101692.47;2569347;30;136750;-41
2022/03/05 07:15:39;;;;;;;;;;;0.60;99.90;;;-1.01;92.32;101692.09;2568682;30;138128;-40
2022/03/05 07:18:07;;;;;;;;;;;0.60;99.90;;;-0.92;91.90;101688.75;2566492;30;137279;-40
2022/03/05 07:20:35;;;;;;;;;;;0.70;99.90;;;-0.79;91.04;101691.34;2569713;30;137445;-41
2022/03/05 07:23:04;;;;;;;;;;;0.80;99.90;;;-0.73;90.61;101685.50;2568764;30;137155;-40
2022/03/05 07:25:39;;;;;;;;;;;0.90;99.90;;;-0.60;90.45;101685.44;2569056;30;137358;-41
2022/03/05 07:28:08;;;;;;;;;;;1.00;99.90;;;-0.50;89.97;101690.94;2568622;30;138304;-40
2022/03/05 07:30:37;;;;;;;;;;;1.10;99.90;;;-0.49;89.90;101684.59;2569196;30;138183;-41
2022/03/05 07:33:06;;;;;;;;;;;1.20;99.90;;;-0.34;89.16;101698.66;2568622;30;137268;-41
2022/03/05 07:35:33;;;;;;;;;;;1.20;99.90;;;-0.24;89.28;101692.56;2568637;30;138257;-40
2022/03/05 07:38:01;;;;;;;;;;;1.30;99.90;;;-0.14;88.24;101696.22;2568111;30;137492;-40
2022/03/05 07:40:29;;;;;;;;;;;1.40;99.90;;;-0.03;87.91;101698.03;2569510;30;137313;-40
2022/03/05 07:42:56;;;;;;;;;;;1.50;99.90;;;0.06;87.51;101693.78;2570195;30;137193;-41
2022/03/05 07:45:24;;;;;;;;;;;1.60;99.90;;;0.12;88.35;101704.88;2568757;30;137413;-40
2022/03/05 07:47:51;;;;;;;;;;;1.60;99.90;;;0.25;86.43;101702.09;2568533;30;137911;-40
2022/03/05 07:50:18;;;;;;;;;;;1.70;99.90;;;0.34;86.17;101705.88;2569005;30;138191;-40
2022/03/05 07:52:46;;;;;;;;;;;1.80;99.90;;;0.43;85.73;101705.09;2569107;30;137086;-40
2022/03/05 07:55:13;;;;;;;;;;;1.90;99.90;;;0.54;86.11;101700.72;2568383;30;137268;-41
2022/03/05 07:57:40;;;;;;;;;;;2.00;99.90;;;0.63;85.72;101710.69;2569537;30;137070;-40
2022/03/05 08:00:08;;;;;;;;;;;2.10;99.90;;;0.74;85.10;101717.00;2569020;30;137813;-41
2022/03/05 08:02:47;;;;;;;;;;;2.20;99.90;;;0.84;84.00;101712.59;2567503;30;136833;-40
2022/03/05 08:05:15;;;;;;;;;;;2.30;99.90;;;0.90;83.51;101713.91;2568915;30;138032;-41
2022/03/05 08:07:42;;;;;;;;;;;2.40;99.90;;;1.00;84.00;101715.72;2568165;30;137193;-40
2022/03/05 08:10:09;;;;;;;;;;;2.50;99.90;;;1.12;83.50;101715.69;2568619;30;138285;-40
2022/03/05 08:12:37;;;;;;;;;;;2.60;99.90;;;1.18;81.96;101720.53;2569449;30;137086;-40
2022/03/05 08:15:06;;;;;;;;;;;2.70;99.90;;;1.28;82.37;101726.00;2568637;30;137403;-41
2022/03/05 08:17:33;;;;;;;;;;;2.70;99.90;;;1.38;81.78;101729.63;2569265;30;136864;-41
2022/03/05 08:20:01;;;;;;;;;;;2.80;99.90;;;1.45;82.17;101727.25;2568536;30;138160;-41
2022/03/05 08:22:29;;;;;;;;;;;2.90;99.90;;;1.55;81.60;101730.88;2567103;30;137135;-41
2022/03/05 08:24:56;;;;;;;;;;;3.00;99.90;;;1.63;80.88;101729.38;2568810;30;137194;-40
2022/03/05 08:27:24;;;;;;;;;;;3.10;99.90;;;1.76;81.21;101738.09;2568244;30;137358;-40
2022/03/05 08:29:51;;;;;;;;;;;3.20;99.90;;;1.85;80.99;101728.38;2568461;30;138357;-40
2022/03/05 08:32:19;;;;;;;;;;;3.30;99.90;;;1.93;80.91;101733.09;2568620;30;137165;-40
2022/03/05 08:34:46;;;;;;;;;;;3.30;99.90;;;2.04;80.16;101741.06;2569171;30;137296;-40
2022/03/05 08:37:14;;;;;;;;;;;3.40;99.90;;;2.08;78.59;101731.75;2567338;30;137242;-41
2022/03/05 08:39:42;;;;;;;;;;;3.50;99.90;;;2.18;79.42;101734.47;2568548;30;137355;-41
2022/03/05 08:42:09;;;;;;;;;;;3.60;99.90;;;2.23;77.53;101744.84;2569175;30;137871;-40
2022/03/05 08:44:41;;;;;;;;;;;3.70;99.90;;;2.33;78.07;101728.75;2568528;30;138347;-40
2022/03/05 08:47:08;;;;;;;;;;;3.80;99.90;;;2.36;77.50;101729.31;2568426;30;137131;-41
2022/03/05 08:49:36;;;;;;;;;;;3.80;99.90;;;2.46;77.05;101726.66;2568257;30;138362;-41
2022/03/05 08:52:04;;;;;;;;;;;3.90;99.90;;;2.56;76.58;101722.16;2568631;30;137137;-40
2022/03/05 08:54:32;;;;;;;;;;;4.00;99.90;;;2.60;76.25;101714.63;2569644;30;138736;-41
2022/03/05 08:56:59;;;;;;;;;;;4.10;99.90;;;2.71;76.63;101719.94;2568654;30;137912;-40
2022/03/05 08:59:26;;;;;;;;;;;4.20;99.90;;;2.79;75.69;101724.63;2568386;30;138330;-41
2022/03/05 09:01:54;;;;;;;;;;;4.20;99.90;;;2.86;74.62;101716.81;2569078;30;136700;-40
2022/03/05 09:04:22;;;;;;;;;;;4.30;99.90;;;2.92;74.67;101716.28;2569030;30;138303;-41
2022/03/05 09:06:49;;;;;;;;;;;4.30;99.90;;;3.00;75.17;101713.72;2568403;30;137282;-41
2022/03/05 09:09:17;;;;;;;;;;;4.40;99.90;;;3.11;73.48;101714.56;2569083;30;138309;-40
2022/03/05 09:11:44;;;;;;;;;;;4.50;99.90;;;3.17;73.80;101720.25;2566101;30;136816;-40
2022/03/05 09:14:11;;;;;;;;;;;4.60;99.90;;;3.27;73.94;101714.88;2568011;30;138229;-40
2022/03/05 09:16:40;;;;;;;;;;;4.60;99.90;;;3.39;74.11;101717.41;2568556;30;137782;-41
2022/03/05 09:19:08;;;;;;;;;;;4.70;99.90;;;3.49;72.93;101712.88;2567307;30;138377;-41
2022/03/05 09:21:36;;;;;;;;;;;4.80;99.90;;;3.60;73.21;101712.69;2567251;30;136672;-40
2022/03/05 09:24:05;;;;;;;;;;;4.90;99.90;;;3.74;72.92;101708.69;2569729;30;138900;-41
2022/03/05 09:26:33;;;;;;;;;;;5.00;99.90;;;3.91;72.13;101711.66;2568274;30;137016;-41
2022/03/05 09:29:00;;;;;;;;;;;5.20;99.90;;;3.97;70.29;101711.03;2566947;30;139228;-40
2022/03/05 09:31:28;;;;;;;;;;;5.30;99.90;;;4.05;70.10;101713.03;2569119;30;136556;-41
2022/03/05 09:33:56;;;;;;;;;;;5.40;99.90;;;4.12;69.62;101713.28;2567569;30;136983;-40
2022/03/05 09:36:23;;;;;;;;;;;5.40;99.90;;;4.22;69.75;101711.38;2568943;30;136969;-41
2022/03/05 09:38:50;;;;;;;;;;;5.50;99.90;;;4.30;68.48;101716.06;2568054;30;138091;-40
2022/03/05 09:41:18;;;;;;;;;;;5.60;99.90;;;4.39;68.08;101717.00;2568854;30;136695;-40
2022/03/05 09:43:45;;;;;;;;;;;5.70;99.90;;;4.50;67.50;101718.63;2568784;30;138314;-41
2022/03/05 09:46:19;;;;;;;;;;;5.80;99.90;;;4.58;67.86;101713.34;2566857;30;136687;-41
2022/03/05 09:48:46;;;;;;;;;;;5.90;99.90;;;4.69;67.40;101713.13;2567132;30;136866;-41
2022/03/05 09:51:14;;;;;;;;;;;6.00;99.90;;;4.79;67.14;101709.53;2568294;30;137040;-41
2022/03/05 09:53:43;;;;;;;;;;;6.10;99.90;;;4.93;67.28;101722.50;2569030;30;138146;-41
2022/03/05 09:56:11;;;;;;;;;;;6.20;99.90;;;4.97;65.10;101712.25;2569040;30;136807;-41
2022/03/05 09:58:51;;;;;;;;;;;6.30;99.90;;;5.08;65.01;101719.28;2568472;30;138650;-40
2022/03/05 10:01:18;;;;;;;;;;;6.40;99.90;;;5.18;64.64;101709.22;2569066;30;136792;-41
2022/03/05 10:03:52;;;;;;;;;;;6.40;99.90;;;5.25;64.32;101714.88;2568580;30;138046;-41
2022/03/05 10:06:21;;;;;;;;;;;6.50;99.90;;;5.32;63.31;101716.81;2565557;30;137025;-41
2022/03/05 10:08:51;;;;;;;;;;;6.60;99.90;;;5.44;62.20;101716.56;2568588;30;139221;-40
2022/03/05 10:11:20;;;;;;;;;;;6.70;99.90;;;5.54;63.04;101720.00;2567626;30;137243;-41
2022/03/05 10:13:48;;;;;;;;;;;6.80;99.90;;;5.68;62.83;101728.59;2568885;30;136683;-41
2022/03/05 10:16:30;;;;;;;;;;;6.90;99.90;;;5.82;62.41;101721.75;2567727;30;137026;-42
2022/03/05 10:19:14;;;;;;;;;;;7.00;99.90;;;5.87;62.80;101728.38;2568262;30;138211;-41
2022/03/05 10:22:03;;;;;;;;;;;7.10;99.90;;;5.98;61.63;101721.00;2567418;30;136892;-41
2022/03/05 10:24:36;;;;;;;;;;;7.20;99.90;;;6.04;61.32;101723.94;2568323;30;137984;-41
2022/03/05 10:27:06;;;;;;;;;;;7.30;99.90;;;6.07;60.23;101720.06;2568267;30;136909;-40
2022/03/05 10:29:39;;;;;;;;;;;7.40;99.90;;;6.11;60.38;101723.31;2567755;30;139015;-41
2022/03/05 10:32:09;;;;;;;;;;;7.40;99.90;;;6.19;59.77;101723.34;2568613;30;136876;-41
2022/03/05 10:34:48;;;;;;;;;;;7.50;99.90;;;6.29;60.71;101713.25;2568300;30;138417;-41
2022/03/05 10:37:16;;;;;;;;;;;7.50;99.90;;;6.39;59.63;101710.41;2566733;30;138351;-41
2022/03/05 10:39:46;;;;;;;;;;;7.60;99.90;;;6.47;60.02;101715.84;2570246;30;138751;-41
2022/03/05 10:42:21;;;;;;;;;;;7.70;99.90;;;6.57;58.00;101714.84;2568196;30;136705;-41
2022/03/05 10:45:11;;;;;;;;;;;7.80;99.90;;;6.63;57.48;101703.38;2568264;30;137881;-40
2022/03/05 10:47:46;;;;;;;;;;;7.90;99.90;;;6.74;59.49;101705.78;2565909;30;137087;-40
2022/03/05 10:50:15;;;;;;;;;;;8.00;99.90;;;6.82;57.50;101710.38;2566576;30;137172;-41
2022/03/05 10:52:50;;;;;;;;;;;8.00;99.90;;;6.88;58.22;101716.97;2568010;30;137188;-41
2022/03/05 10:55:20;;;;;;;;;;;8.10;99.90;;;6.97;57.03;101704.28;2568068;30;138578;-41
2022/03/05 10:58:17;;;;;;;;;;;8.20;99.90;;;7.03;57.92;101700.94;2569406;30;137350;-41
2022/03/05 11:00:49;;;;;;;;;;;8.20;99.90;;;7.17;58.54;101697.53;2568072;30;138012;-41
2022/03/05 11:03:18;;;;;;;;;;;8.30;99.90;;;7.27;56.92;101705.50;2567612;30;136703;-41
2022/03/05 11:05:46;;;;;;;;;;;8.40;99.90;;;7.26;56.78;101690.25;2567573;30;138180;-41
2022/03/05 11:08:16;;;;;;;;;;;8.50;99.90;;;7.39;56.54;101697.03;2568260;30;137958;-40
2022/03/05 11:10:47;;;;;;;;;;;8.60;99.90;;;7.44;54.64;101703.63;2568000;30;136540;-41
2022/03/05 11:13:15;;;;;;;;;;;8.70;98.90;;;7.52;56.00;101700.09;2568495;30;136943;-41
2022/03/05 11:15:44;;;;;;;;;;;8.70;99.70;;;7.52;55.39;101701.94;2567858;30;137945;-41
2022/03/05 11:18:13;;;;;;;;;;;8.80;98.80;;;7.58;54.97;101699.38;2567670;30;137162;-41